sensor_id;sensor_type;location;lat;lon;timestamp;P1;durP1;ratioP1;P2;durP2;ratioP2
25299;SDS011;13241;51.208;4.432;2023-02-19T00:01:30;9.35;;;5.80;;
25299;SDS011;13241;51.208;4.432;2023-02-19T00:04:00;14.38;;;5.78;;
25299;SDS011;13241;51.208;4.432;2023-02-19T00:06:30;11.18;;;5.30;;
25299;SDS011;13241;51.208;4.432;2023-02-19T00:08:58;15.73;;;6.13;;
25299;SDS011;13241;51.208;4.432;2023-02-19T00:11:26;16.50;;;6.05;;
25299;SDS011;13241;51.208;4.432;2023-02-19T00:13:55;12.10;;;6.65;;
25299;SDS011;13241;51.208;4.432;2023-02-19T00:16:25;13.98;;;6.57;;
25299;SDS011;13241;51.208;4.432;2023-02-19T00:18:53;13.98;;;5.60;;
25299;SDS011;13241;51.208;4.432;2023-02-19T00:21:21;14.88;;;5.68;;
25299;SDS011;13241;51.208;4.432;2023-02-19T00:23:57;24.73;;;7.05;;
25299;SDS011;13241;51.208;4.432;2023-02-19T00:26:26;17.67;;;6.82;;
25299;SDS011;13241;51.208;4.432;2023-02-19T00:28:54;17.08;;;6.38;;
25299;SDS011;13241;51.208;4.432;2023-02-19T00:31:28;17.83;;;5.75;;
25299;SDS011;13241;51.208;4.432;2023-02-19T00:33:59;14.45;;;6.03;;
25299;SDS011;13241;51.208;4.432;2023-02-19T00:36:29;8.20;;;4.53;;
25299;SDS011;13241;51.208;4.432;2023-02-19T00:39:01;14.13;;;6.13;;
25299;SDS011;13241;51.208;4.432;2023-02-19T00:41:28;10.75;;;5.95;;
25299;SDS011;13241;51.208;4.432;2023-02-19T00:43:56;12.98;;;5.50;;
25299;SDS011;13241;51.208;4.432;2023-02-19T00:46:34;15.18;;;6.07;;
25299;SDS011;13241;51.208;4.432;2023-02-19T00:49:07;12.77;;;5.97;;
25299;SDS011;13241;51.208;4.432;2023-02-19T00:51:40;12.00;;;5.65;;
25299;SDS011;13241;51.208;4.432;2023-02-19T00:54:07;11.85;;;5.70;;
25299;SDS011;13241;51.208;4.432;2023-02-19T00:56:33;15.60;;;6.40;;
25299;SDS011;13241;51.208;4.432;2023-02-19T00:59:00;14.55;;;6.28;;
25299;SDS011;13241;51.208;4.432;2023-02-19T01:01:28;15.82;;;6.15;;
25299;SDS011;13241;51.208;4.432;2023-02-19T01:03:55;15.80;;;6.35;;
25299;SDS011;13241;51.208;4.432;2023-02-19T01:06:22;14.70;;;6.15;;
25299;SDS011;13241;51.208;4.432;2023-02-19T01:08:49;16.15;;;6.53;;
25299;SDS011;13241;51.208;4.432;2023-02-19T01:11:18;13.57;;;6.38;;
25299;SDS011;13241;51.208;4.432;2023-02-19T01:13:46;13.63;;;4.82;;
25299;SDS011;13241;51.208;4.432;2023-02-19T01:16:15;11.52;;;5.88;;
25299;SDS011;13241;51.208;4.432;2023-02-19T01:18:42;14.88;;;7.53;;
25299;SDS011;13241;51.208;4.432;2023-02-19T01:21:13;12.20;;;5.00;;
25299;SDS011;13241;51.208;4.432;2023-02-19T01:23:42;12.85;;;5.82;;
25299;SDS011;13241;51.208;4.432;2023-02-19T01:26:14;11.43;;;5.50;;
25299;SDS011;13241;51.208;4.432;2023-02-19T01:28:44;12.40;;;5.70;;
25299;SDS011;13241;51.208;4.432;2023-02-19T01:31:13;12.13;;;6.15;;
25299;SDS011;13241;51.208;4.432;2023-02-19T01:33:45;10.40;;;5.35;;
25299;SDS011;13241;51.208;4.432;2023-02-19T01:36:13;9.70;;;5.18;;
25299;SDS011;13241;51.208;4.432;2023-02-19T01:38:40;16.80;;;5.57;;
25299;SDS011;13241;51.208;4.432;2023-02-19T01:41:08;12.13;;;4.75;;
25299;SDS011;13241;51.208;4.432;2023-02-19T01:46:26;13.43;;;4.82;;
25299;SDS011;13241;51.208;4.432;2023-02-19T01:51:56;8.18;;;4.45;;
25299;SDS011;13241;51.208;4.432;2023-02-19T01:54:31;13.60;;;5.95;;
25299;SDS011;13241;51.208;4.432;2023-02-19T01:57:03;10.82;;;4.60;;
25299;SDS011;13241;51.208;4.432;2023-02-19T01:59:33;13.05;;;3.53;;
25299;SDS011;13241;51.208;4.432;2023-02-19T02:02:01;8.63;;;3.60;;
25299;SDS011;13241;51.208;4.432;2023-02-19T02:04:29;8.07;;;3.00;;
25299;SDS011;13241;51.208;4.432;2023-02-19T02:06:58;6.95;;;3.42;;
25299;SDS011;13241;51.208;4.432;2023-02-19T02:09:29;10.40;;;3.78;;
25299;SDS011;13241;51.208;4.432;2023-02-19T02:12:15;7.00;;;3.35;;
25299;SDS011;13241;51.208;4.432;2023-02-19T02:14:42;14.18;;;2.83;;
25299;SDS011;13241;51.208;4.432;2023-02-19T02:22:31;5.28;;;2.35;;
25299;SDS011;13241;51.208;4.432;2023-02-19T02:28:05;7.05;;;3.13;;
25299;SDS011;13241;51.208;4.432;2023-02-19T02:30:43;5.55;;;2.83;;
25299;SDS011;13241;51.208;4.432;2023-02-19T02:36:39;3.83;;;2.22;;
25299;SDS011;13241;51.208;4.432;2023-02-19T02:38:43;5.32;;;2.10;;
25299;SDS011;13241;51.208;4.432;2023-02-19T02:41:13;5.13;;;1.80;;
25299;SDS011;13241;51.208;4.432;2023-02-19T02:43:41;13.23;;;2.35;;
25299;SDS011;13241;51.208;4.432;2023-02-19T02:46:09;6.20;;;2.03;;
25299;SDS011;13241;51.208;4.432;2023-02-19T02:51:39;6.90;;;1.83;;
25299;SDS011;13241;51.208;4.432;2023-02-19T02:54:28;9.63;;;2.40;;
25299;SDS011;13241;51.208;4.432;2023-02-19T02:57:19;5.22;;;2.00;;
25299;SDS011;13241;51.208;4.432;2023-02-19T02:59:53;7.13;;;1.77;;
25299;SDS011;13241;51.208;4.432;2023-02-19T03:02:23;4.88;;;2.30;;
25299;SDS011;13241;51.208;4.432;2023-02-19T03:08:06;2.38;;;1.88;;
25299;SDS011;13241;51.208;4.432;2023-02-19T03:10:40;6.88;;;2.00;;
25299;SDS011;13241;51.208;4.432;2023-02-19T03:13:22;8.20;;;2.60;;
25299;SDS011;13241;51.208;4.432;2023-02-19T03:16:15;7.63;;;1.50;;
25299;SDS011;13241;51.208;4.432;2023-02-19T03:19:08;3.38;;;1.63;;
25299;SDS011;13241;51.208;4.432;2023-02-19T03:24:43;7.25;;;2.33;;
25299;SDS011;13241;51.208;4.432;2023-02-19T03:27:36;4.32;;;1.17;;
25299;SDS011;13241;51.208;4.432;2023-02-19T03:32:48;2.13;;;1.38;;
25299;SDS011;13241;51.208;4.432;2023-02-19T03:35:29;5.70;;;1.77;;
25299;SDS011;13241;51.208;4.432;2023-02-19T03:38:03;10.27;;;1.63;;
25299;SDS011;13241;51.208;4.432;2023-02-19T03:43:22;3.55;;;1.63;;
25299;SDS011;13241;51.208;4.432;2023-02-19T03:46:10;2.78;;;1.20;;
25299;SDS011;13241;51.208;4.432;2023-02-19T03:48:55;10.57;;;1.92;;
25299;SDS011;13241;51.208;4.432;2023-02-19T03:51:31;3.55;;;1.45;;
25299;SDS011;13241;51.208;4.432;2023-02-19T03:56:51;10.82;;;1.20;;
25299;SDS011;13241;51.208;4.432;2023-02-19T04:02:31;7.80;;;1.70;;
25299;SDS011;13241;51.208;4.432;2023-02-19T04:05:17;4.93;;;0.95;;
25299;SDS011;13241;51.208;4.432;2023-02-19T04:07:48;4.97;;;1.20;;
25299;SDS011;13241;51.208;4.432;2023-02-19T04:10:22;10.43;;;1.17;;
25299;SDS011;13241;51.208;4.432;2023-02-19T04:12:53;7.70;;;1.30;;
25299;SDS011;13241;51.208;4.432;2023-02-19T04:15:26;2.92;;;1.08;;
25299;SDS011;13241;51.208;4.432;2023-02-19T04:17:57;4.63;;;1.13;;
25299;SDS011;13241;51.208;4.432;2023-02-19T04:20:28;3.97;;;1.25;;
25299;SDS011;13241;51.208;4.432;2023-02-19T04:22:59;3.03;;;1.30;;
25299;SDS011;13241;51.208;4.432;2023-02-19T04:25:26;3.47;;;1.25;;
25299;SDS011;13241;51.208;4.432;2023-02-19T04:28:00;0.73;;;0.63;;
25299;SDS011;13241;51.208;4.432;2023-02-19T04:30:27;9.00;;;1.25;;
25299;SDS011;13241;51.208;4.432;2023-02-19T04:32:54;10.32;;;2.00;;
25299;SDS011;13241;51.208;4.432;2023-02-19T04:35:21;2.05;;;0.88;;
25299;SDS011;13241;51.208;4.432;2023-02-19T04:37:48;5.38;;;1.55;;
25299;SDS011;13241;51.208;4.432;2023-02-19T04:40:15;5.38;;;1.92;;
25299;SDS011;13241;51.208;4.432;2023-02-19T04:42:42;2.75;;;1.08;;
25299;SDS011;13241;51.208;4.432;2023-02-19T04:45:08;3.75;;;0.90;;
25299;SDS011;13241;51.208;4.432;2023-02-19T04:47:35;3.30;;;1.02;;
25299;SDS011;13241;51.208;4.432;2023-02-19T04:50:02;7.30;;;2.15;;
25299;SDS011;13241;51.208;4.432;2023-02-19T04:52:29;3.28;;;1.52;;
25299;SDS011;13241;51.208;4.432;2023-02-19T04:54:56;16.13;;;1.77;;
25299;SDS011;13241;51.208;4.432;2023-02-19T04:57:23;10.02;;;2.10;;
25299;SDS011;13241;51.208;4.432;2023-02-19T04:59:50;4.65;;;1.40;;
25299;SDS011;13241;51.208;4.432;2023-02-19T05:02:16;13.38;;;1.95;;
25299;SDS011;13241;51.208;4.432;2023-02-19T05:04:43;6.63;;;1.40;;
25299;SDS011;13241;51.208;4.432;2023-02-19T05:07:10;7.10;;;1.17;;
25299;SDS011;13241;51.208;4.432;2023-02-19T05:09:37;6.88;;;1.83;;
25299;SDS011;13241;51.208;4.432;2023-02-19T05:12:04;4.03;;;1.20;;
25299;SDS011;13241;51.208;4.432;2023-02-19T05:14:31;4.90;;;1.38;;
25299;SDS011;13241;51.208;4.432;2023-02-19T05:16:58;9.40;;;1.95;;
25299;SDS011;13241;51.208;4.432;2023-02-19T05:19:24;3.70;;;1.30;;
25299;SDS011;13241;51.208;4.432;2023-02-19T05:21:51;5.38;;;1.63;;
25299;SDS011;13241;51.208;4.432;2023-02-19T05:24:18;4.70;;;1.20;;
25299;SDS011;13241;51.208;4.432;2023-02-19T05:26:45;6.53;;;1.27;;
25299;SDS011;13241;51.208;4.432;2023-02-19T05:29:13;5.50;;;2.28;;
25299;SDS011;13241;51.208;4.432;2023-02-19T05:31:40;9.00;;;1.38;;
25299;SDS011;13241;51.208;4.432;2023-02-19T05:34:07;4.82;;;1.77;;
25299;SDS011;13241;51.208;4.432;2023-02-19T05:36:34;5.88;;;0.93;;
25299;SDS011;13241;51.208;4.432;2023-02-19T05:39:02;14.00;;;1.95;;
25299;SDS011;13241;51.208;4.432;2023-02-19T05:41:31;10.90;;;2.05;;
25299;SDS011;13241;51.208;4.432;2023-02-19T05:43:58;7.43;;;1.73;;
25299;SDS011;13241;51.208;4.432;2023-02-19T05:46:26;9.23;;;1.98;;
25299;SDS011;13241;51.208;4.432;2023-02-19T05:48:55;10.00;;;1.58;;
25299;SDS011;13241;51.208;4.432;2023-02-19T05:51:26;7.90;;;1.90;;
25299;SDS011;13241;51.208;4.432;2023-02-19T05:53:54;8.05;;;1.75;;
25299;SDS011;13241;51.208;4.432;2023-02-19T05:58:54;12.30;;;1.20;;
25299;SDS011;13241;51.208;4.432;2023-02-19T06:01:23;3.47;;;1.02;;
25299;SDS011;13241;51.208;4.432;2023-02-19T06:03:53;4.32;;;1.42;;
25299;SDS011;13241;51.208;4.432;2023-02-19T06:06:23;1.98;;;0.90;;
25299;SDS011;13241;51.208;4.432;2023-02-19T06:08:50;9.18;;;2.00;;
25299;SDS011;13241;51.208;4.432;2023-02-19T06:11:17;4.57;;;1.73;;
25299;SDS011;13241;51.208;4.432;2023-02-19T06:13:44;12.93;;;1.60;;
25299;SDS011;13241;51.208;4.432;2023-02-19T06:16:11;9.65;;;1.63;;
25299;SDS011;13241;51.208;4.432;2023-02-19T06:18:38;7.70;;;1.67;;
25299;SDS011;13241;51.208;4.432;2023-02-19T06:21:07;7.25;;;2.22;;
25299;SDS011;13241;51.208;4.432;2023-02-19T06:23:36;8.52;;;2.38;;
25299;SDS011;13241;51.208;4.432;2023-02-19T06:26:07;20.15;;;1.58;;
25299;SDS011;13241;51.208;4.432;2023-02-19T06:28:36;7.57;;;1.42;;
25299;SDS011;13241;51.208;4.432;2023-02-19T06:31:03;3.70;;;0.90;;
25299;SDS011;13241;51.208;4.432;2023-02-19T06:33:31;6.28;;;1.45;;
25299;SDS011;13241;51.208;4.432;2023-02-19T06:36:02;4.90;;;0.95;;
25299;SDS011;13241;51.208;4.432;2023-02-19T06:38:29;3.45;;;1.27;;
25299;SDS011;13241;51.208;4.432;2023-02-19T06:41:03;9.00;;;1.23;;
25299;SDS011;13241;51.208;4.432;2023-02-19T06:43:32;2.20;;;1.23;;
25299;SDS011;13241;51.208;4.432;2023-02-19T06:45:59;3.72;;;0.95;;
25299;SDS011;13241;51.208;4.432;2023-02-19T06:48:28;5.82;;;2.30;;
25299;SDS011;13241;51.208;4.432;2023-02-19T06:50:56;9.77;;;1.00;;
25299;SDS011;13241;51.208;4.432;2023-02-19T06:53:23;1.48;;;1.13;;
25299;SDS011;13241;51.208;4.432;2023-02-19T06:56:06;5.10;;;1.45;;
25299;SDS011;13241;51.208;4.432;2023-02-19T06:58:47;4.18;;;1.38;;
25299;SDS011;13241;51.208;4.432;2023-02-19T07:01:14;10.82;;;2.25;;
25299;SDS011;13241;51.208;4.432;2023-02-19T07:03:41;2.13;;;1.08;;
25299;SDS011;13241;51.208;4.432;2023-02-19T07:06:08;11.07;;;2.05;;
25299;SDS011;13241;51.208;4.432;2023-02-19T07:08:35;11.57;;;1.35;;
25299;SDS011;13241;51.208;4.432;2023-02-19T07:11:02;4.82;;;1.40;;
25299;SDS011;13241;51.208;4.432;2023-02-19T07:13:29;3.20;;;1.15;;
25299;SDS011;13241;51.208;4.432;2023-02-19T07:16:00;8.77;;;1.08;;
25299;SDS011;13241;51.208;4.432;2023-02-19T07:18:28;2.42;;;1.05;;
25299;SDS011;13241;51.208;4.432;2023-02-19T07:21:02;8.73;;;1.88;;
25299;SDS011;13241;51.208;4.432;2023-02-19T07:23:30;4.95;;;2.00;;
25299;SDS011;13241;51.208;4.432;2023-02-19T07:25:59;5.05;;;1.35;;
25299;SDS011;13241;51.208;4.432;2023-02-19T07:28:27;12.10;;;1.67;;
25299;SDS011;13241;51.208;4.432;2023-02-19T07:31:03;1.75;;;0.75;;
25299;SDS011;13241;51.208;4.432;2023-02-19T07:33:30;2.28;;;0.93;;
25299;SDS011;13241;51.208;4.432;2023-02-19T07:35:56;3.53;;;1.08;;
25299;SDS011;13241;51.208;4.432;2023-02-19T07:38:24;3.38;;;1.33;;
25299;SDS011;13241;51.208;4.432;2023-02-19T07:40:52;5.15;;;1.35;;
25299;SDS011;13241;51.208;4.432;2023-02-19T07:43:24;5.43;;;1.50;;
25299;SDS011;13241;51.208;4.432;2023-02-19T07:45:51;8.40;;;1.42;;
25299;SDS011;13241;51.208;4.432;2023-02-19T07:48:18;7.13;;;1.15;;
25299;SDS011;13241;51.208;4.432;2023-02-19T07:50:55;9.02;;;1.65;;
25299;SDS011;13241;51.208;4.432;2023-02-19T07:53:24;4.72;;;1.65;;
25299;SDS011;13241;51.208;4.432;2023-02-19T07:55:52;8.00;;;1.10;;
25299;SDS011;13241;51.208;4.432;2023-02-19T07:58:19;3.38;;;1.25;;
25299;SDS011;13241;51.208;4.432;2023-02-19T08:00:46;11.07;;;1.25;;
25299;SDS011;13241;51.208;4.432;2023-02-19T08:03:13;2.30;;;1.40;;
25299;SDS011;13241;51.208;4.432;2023-02-19T08:05:40;4.68;;;1.25;;
25299;SDS011;13241;51.208;4.432;2023-02-19T08:08:09;11.15;;;1.45;;
25299;SDS011;13241;51.208;4.432;2023-02-19T08:10:37;3.63;;;0.85;;
25299;SDS011;13241;51.208;4.432;2023-02-19T08:13:24;3.60;;;1.55;;
25299;SDS011;13241;51.208;4.432;2023-02-19T08:18:42;10.55;;;2.03;;
25299;SDS011;13241;51.208;4.432;2023-02-19T08:21:09;4.78;;;1.25;;
25299;SDS011;13241;51.208;4.432;2023-02-19T08:23:37;7.13;;;1.33;;
25299;SDS011;13241;51.208;4.432;2023-02-19T08:26:04;13.43;;;1.88;;
25299;SDS011;13241;51.208;4.432;2023-02-19T08:28:32;6.05;;;1.88;;
25299;SDS011;13241;51.208;4.432;2023-02-19T08:31:03;5.57;;;1.35;;
25299;SDS011;13241;51.208;4.432;2023-02-19T08:33:32;2.50;;;1.10;;
25299;SDS011;13241;51.208;4.432;2023-02-19T08:36:02;6.22;;;1.05;;
25299;SDS011;13241;51.208;4.432;2023-02-19T08:38:32;7.13;;;1.20;;
25299;SDS011;13241;51.208;4.432;2023-02-19T08:41:04;5.50;;;1.30;;
25299;SDS011;13241;51.208;4.432;2023-02-19T08:43:37;2.20;;;0.90;;
25299;SDS011;13241;51.208;4.432;2023-02-19T08:46:04;1.20;;;1.08;;
25299;SDS011;13241;51.208;4.432;2023-02-19T08:48:33;9.32;;;1.30;;
25299;SDS011;13241;51.208;4.432;2023-02-19T08:51:00;10.25;;;1.58;;
25299;SDS011;13241;51.208;4.432;2023-02-19T08:53:30;4.63;;;1.10;;
25299;SDS011;13241;51.208;4.432;2023-02-19T08:55:57;7.10;;;1.27;;
25299;SDS011;13241;51.208;4.432;2023-02-19T08:58:25;7.50;;;1.20;;
25299;SDS011;13241;51.208;4.432;2023-02-19T09:00:52;2.30;;;1.20;;
25299;SDS011;13241;51.208;4.432;2023-02-19T09:03:19;2.00;;;0.55;;
25299;SDS011;13241;51.208;4.432;2023-02-19T09:05:46;6.60;;;0.95;;
25299;SDS011;13241;51.208;4.432;2023-02-19T09:08:13;3.00;;;1.45;;
25299;SDS011;13241;51.208;4.432;2023-02-19T09:10:40;4.50;;;1.73;;
25299;SDS011;13241;51.208;4.432;2023-02-19T09:13:07;7.32;;;1.70;;
25299;SDS011;13241;51.208;4.432;2023-02-19T09:15:35;3.45;;;1.17;;
25299;SDS011;13241;51.208;4.432;2023-02-19T09:18:03;2.13;;;1.52;;
25299;SDS011;13241;51.208;4.432;2023-02-19T09:20:30;6.88;;;1.20;;
25299;SDS011;13241;51.208;4.432;2023-02-19T09:22:57;6.13;;;1.42;;
25299;SDS011;13241;51.208;4.432;2023-02-19T09:25:24;4.95;;;1.50;;
25299;SDS011;13241;51.208;4.432;2023-02-19T09:27:54;5.10;;;1.08;;
25299;SDS011;13241;51.208;4.432;2023-02-19T09:30:21;9.68;;;1.00;;
25299;SDS011;13241;51.208;4.432;2023-02-19T09:32:48;4.25;;;1.25;;
25299;SDS011;13241;51.208;4.432;2023-02-19T09:35:15;5.45;;;1.85;;
25299;SDS011;13241;51.208;4.432;2023-02-19T09:37:42;3.55;;;1.38;;
25299;SDS011;13241;51.208;4.432;2023-02-19T09:40:09;3.15;;;1.17;;
25299;SDS011;13241;51.208;4.432;2023-02-19T09:42:37;8.18;;;1.15;;
25299;SDS011;13241;51.208;4.432;2023-02-19T09:45:06;4.43;;;1.27;;
25299;SDS011;13241;51.208;4.432;2023-02-19T09:47:38;2.40;;;0.93;;
25299;SDS011;13241;51.208;4.432;2023-02-19T09:50:07;6.35;;;1.27;;
25299;SDS011;13241;51.208;4.432;2023-02-19T09:55:14;5.95;;;1.63;;
25299;SDS011;13241;51.208;4.432;2023-02-19T10:00:19;4.75;;;0.98;;
25299;SDS011;13241;51.208;4.432;2023-02-19T10:02:49;3.40;;;1.33;;
25299;SDS011;13241;51.208;4.432;2023-02-19T10:05:17;6.72;;;2.25;;
25299;SDS011;13241;51.208;4.432;2023-02-19T10:07:47;6.10;;;1.17;;
25299;SDS011;13241;51.208;4.432;2023-02-19T10:15:55;3.70;;;1.30;;
25299;SDS011;13241;51.208;4.432;2023-02-19T10:18:25;4.88;;;1.95;;
25299;SDS011;13241;51.208;4.432;2023-02-19T10:20:54;3.33;;;1.02;;
25299;SDS011;13241;51.208;4.432;2023-02-19T10:23:21;2.50;;;1.13;;
25299;SDS011;13241;51.208;4.432;2023-02-19T10:25:54;10.18;;;1.83;;
25299;SDS011;13241;51.208;4.432;2023-02-19T10:28:23;5.05;;;1.10;;
25299;SDS011;13241;51.208;4.432;2023-02-19T10:30:55;9.15;;;1.50;;
25299;SDS011;13241;51.208;4.432;2023-02-19T10:33:26;4.97;;;2.25;;
25299;SDS011;13241;51.208;4.432;2023-02-19T10:35:57;6.13;;;1.58;;
25299;SDS011;13241;51.208;4.432;2023-02-19T10:38:31;5.53;;;1.30;;
25299;SDS011;13241;51.208;4.432;2023-02-19T10:41:11;3.00;;;1.48;;
25299;SDS011;13241;51.208;4.432;2023-02-19T10:43:44;4.45;;;1.42;;
25299;SDS011;13241;51.208;4.432;2023-02-19T10:46:21;9.60;;;1.70;;
25299;SDS011;13241;51.208;4.432;2023-02-19T10:48:54;6.43;;;1.13;;
25299;SDS011;13241;51.208;4.432;2023-02-19T10:51:36;6.55;;;1.25;;
25299;SDS011;13241;51.208;4.432;2023-02-19T10:56:45;1.30;;;1.02;;
25299;SDS011;13241;51.208;4.432;2023-02-19T10:59:14;2.15;;;1.00;;
25299;SDS011;13241;51.208;4.432;2023-02-19T11:02:00;4.13;;;1.20;;
25299;SDS011;13241;51.208;4.432;2023-02-19T11:04:29;18.75;;;1.23;;
25299;SDS011;13241;51.208;4.432;2023-02-19T11:07:07;2.42;;;1.35;;
25299;SDS011;13241;51.208;4.432;2023-02-19T11:09:42;9.32;;;1.50;;
25299;SDS011;13241;51.208;4.432;2023-02-19T11:12:12;7.97;;;1.27;;
25299;SDS011;13241;51.208;4.432;2023-02-19T11:14:49;2.72;;;1.10;;
25299;SDS011;13241;51.208;4.432;2023-02-19T11:17:24;4.05;;;1.25;;
25299;SDS011;13241;51.208;4.432;2023-02-19T11:19:53;5.93;;;1.50;;
25299;SDS011;13241;51.208;4.432;2023-02-19T11:24:54;2.77;;;1.70;;
25299;SDS011;13241;51.208;4.432;2023-02-19T11:27:24;4.15;;;1.48;;
25299;SDS011;13241;51.208;4.432;2023-02-19T11:29:51;3.00;;;1.27;;
25299;SDS011;13241;51.208;4.432;2023-02-19T11:35:15;3.72;;;1.50;;
25299;SDS011;13241;51.208;4.432;2023-02-19T11:37:54;3.65;;;1.75;;
25299;SDS011;13241;51.208;4.432;2023-02-19T11:40:34;6.90;;;1.35;;
25299;SDS011;13241;51.208;4.432;2023-02-19T11:46:06;2.05;;;1.02;;
25299;SDS011;13241;51.208;4.432;2023-02-19T12:05:29;2.95;;;1.10;;
25299;SDS011;13241;51.208;4.432;2023-02-19T12:11:34;1.40;;;1.30;;
25299;SDS011;13241;51.208;4.432;2023-02-19T12:17:17;2.08;;;1.50;;
25299;SDS011;13241;51.208;4.432;2023-02-19T12:20:17;0.80;;;0.80;;
25299;SDS011;13241;51.208;4.432;2023-02-19T12:23:13;5.82;;;1.50;;
25299;SDS011;13241;51.208;4.432;2023-02-19T12:26:07;2.53;;;1.67;;
25299;SDS011;13241;51.208;4.432;2023-02-19T12:29:06;3.22;;;1.88;;
25299;SDS011;13241;51.208;4.432;2023-02-19T12:34:46;2.03;;;1.15;;
25299;SDS011;13241;51.208;4.432;2023-02-19T12:40:21;1.35;;;1.20;;
25299;SDS011;13241;51.208;4.432;2023-02-19T12:45:45;1.25;;;1.15;;
25299;SDS011;13241;51.208;4.432;2023-02-19T12:48:25;2.90;;;2.60;;
25299;SDS011;13241;51.208;4.432;2023-02-19T12:51:06;1.08;;;0.98;;
25299;SDS011;13241;51.208;4.432;2023-02-19T12:53:57;1.17;;;0.70;;
25299;SDS011;13241;51.208;4.432;2023-02-19T12:56:41;2.22;;;1.45;;
25299;SDS011;13241;51.208;4.432;2023-02-19T12:59:31;11.18;;;1.52;;
25299;SDS011;13241;51.208;4.432;2023-02-19T13:04:36;2.40;;;1.30;;
25299;SDS011;13241;51.208;4.432;2023-02-19T13:07:22;5.35;;;0.95;;
25299;SDS011;13241;51.208;4.432;2023-02-19T13:12:34;7.25;;;1.30;;
25299;SDS011;13241;51.208;4.432;2023-02-19T13:17:50;2.55;;;1.30;;
25299;SDS011;13241;51.208;4.432;2023-02-19T13:20:38;2.78;;;1.02;;
25299;SDS011;13241;51.208;4.432;2023-02-19T13:29:07;1.73;;;1.20;;
25299;SDS011;13241;51.208;4.432;2023-02-19T13:37:17;3.50;;;1.20;;
25299;SDS011;13241;51.208;4.432;2023-02-19T13:39:51;2.22;;;0.98;;
25299;SDS011;13241;51.208;4.432;2023-02-19T13:42:55;0.85;;;0.82;;
25299;SDS011;13241;51.208;4.432;2023-02-19T13:45:20;2.22;;;1.13;;
25299;SDS011;13241;51.208;4.432;2023-02-19T13:50:26;2.75;;;1.35;;
25299;SDS011;13241;51.208;4.432;2023-02-19T13:59:01;1.85;;;0.70;;
25299;SDS011;13241;51.208;4.432;2023-02-19T14:04:24;2.80;;;0.90;;
25299;SDS011;13241;51.208;4.432;2023-02-19T14:14:39;6.70;;;0.90;;
25299;SDS011;13241;51.208;4.432;2023-02-19T14:33:38;1.33;;;0.63;;
25299;SDS011;13241;51.208;4.432;2023-02-19T14:39:15;1.45;;;0.88;;
25299;SDS011;13241;51.208;4.432;2023-02-19T14:41:47;3.13;;;0.93;;
25299;SDS011;13241;51.208;4.432;2023-02-19T14:44:20;4.57;;;2.45;;
25299;SDS011;13241;51.208;4.432;2023-02-19T14:46:55;3.53;;;1.20;;
25299;SDS011;13241;51.208;4.432;2023-02-19T14:49:32;1.50;;;0.73;;
25299;SDS011;13241;51.208;4.432;2023-02-19T14:52:12;5.38;;;1.00;;
25299;SDS011;13241;51.208;4.432;2023-02-19T14:54:52;5.75;;;1.08;;
25299;SDS011;13241;51.208;4.432;2023-02-19T14:57:32;2.80;;;0.82;;
25299;SDS011;13241;51.208;4.432;2023-02-19T15:00:19;1.45;;;0.85;;
25299;SDS011;13241;51.208;4.432;2023-02-19T15:02:48;1.23;;;0.80;;
25299;SDS011;13241;51.208;4.432;2023-02-19T15:05:23;1.42;;;0.70;;
25299;SDS011;13241;51.208;4.432;2023-02-19T15:07:59;5.10;;;1.00;;
25299;SDS011;13241;51.208;4.432;2023-02-19T15:10:36;1.55;;;0.70;;
25299;SDS011;13241;51.208;4.432;2023-02-19T15:13:04;3.13;;;0.75;;
25299;SDS011;13241;51.208;4.432;2023-02-19T15:15:37;1.63;;;0.93;;
25299;SDS011;13241;51.208;4.432;2023-02-19T15:18:13;1.00;;;0.80;;
25299;SDS011;13241;51.208;4.432;2023-02-19T15:20:44;2.13;;;1.13;;
25299;SDS011;13241;51.208;4.432;2023-02-19T15:23:15;1.85;;;0.85;;
25299;SDS011;13241;51.208;4.432;2023-02-19T15:25:47;0.93;;;0.68;;
25299;SDS011;13241;51.208;4.432;2023-02-19T15:28:48;2.50;;;0.93;;
25299;SDS011;13241;51.208;4.432;2023-02-19T15:31:11;1.38;;;1.10;;
25299;SDS011;13241;51.208;4.432;2023-02-19T15:33:47;1.05;;;0.70;;
25299;SDS011;13241;51.208;4.432;2023-02-19T15:36:16;1.33;;;0.80;;
25299;SDS011;13241;51.208;4.432;2023-02-19T15:38:52;2.70;;;1.27;;
25299;SDS011;13241;51.208;4.432;2023-02-19T15:41:21;3.00;;;1.17;;
25299;SDS011;13241;51.208;4.432;2023-02-19T15:43:55;2.75;;;1.02;;
25299;SDS011;13241;51.208;4.432;2023-02-19T15:46:36;2.15;;;1.02;;
25299;SDS011;13241;51.208;4.432;2023-02-19T15:49:08;6.55;;;1.65;;
25299;SDS011;13241;51.208;4.432;2023-02-19T15:54:32;2.50;;;1.05;;
25299;SDS011;13241;51.208;4.432;2023-02-19T15:57:15;2.70;;;1.73;;
25299;SDS011;13241;51.208;4.432;2023-02-19T15:59:50;0.98;;;0.75;;
25299;SDS011;13241;51.208;4.432;2023-02-19T16:02:23;1.70;;;0.60;;
25299;SDS011;13241;51.208;4.432;2023-02-19T16:04:52;0.88;;;0.75;;
25299;SDS011;13241;51.208;4.432;2023-02-19T16:07:24;1.10;;;0.70;;
25299;SDS011;13241;51.208;4.432;2023-02-19T16:10:04;2.88;;;1.17;;
25299;SDS011;13241;51.208;4.432;2023-02-19T16:12:31;1.08;;;0.70;;
25299;SDS011;13241;51.208;4.432;2023-02-19T16:14:59;0.77;;;0.77;;
25299;SDS011;13241;51.208;4.432;2023-02-19T16:17:37;4.07;;;1.20;;
25299;SDS011;13241;51.208;4.432;2023-02-19T16:20:42;2.28;;;0.93;;
25299;SDS011;13241;51.208;4.432;2023-02-19T16:23:02;1.73;;;0.90;;
25299;SDS011;13241;51.208;4.432;2023-02-19T16:28:18;6.13;;;1.15;;
25299;SDS011;13241;51.208;4.432;2023-02-19T16:31:21;4.10;;;0.95;;
25299;SDS011;13241;51.208;4.432;2023-02-19T16:33:45;1.38;;;0.77;;
25299;SDS011;13241;51.208;4.432;2023-02-19T16:36:18;0.97;;;0.90;;
25299;SDS011;13241;51.208;4.432;2023-02-19T16:38:58;1.42;;;1.02;;
25299;SDS011;13241;51.208;4.432;2023-02-19T16:42:05;3.80;;;1.20;;
25299;SDS011;13241;51.208;4.432;2023-02-19T16:49:20;1.92;;;0.80;;
25299;SDS011;13241;51.208;4.432;2023-02-19T16:51:48;4.80;;;1.45;;
25299;SDS011;13241;51.208;4.432;2023-02-19T16:54:16;2.50;;;1.10;;
25299;SDS011;13241;51.208;4.432;2023-02-19T16:56:43;5.40;;;1.00;;
25299;SDS011;13241;51.208;4.432;2023-02-19T16:59:09;4.80;;;1.42;;
25299;SDS011;13241;51.208;4.432;2023-02-19T17:01:36;6.30;;;1.35;;
25299;SDS011;13241;51.208;4.432;2023-02-19T17:04:05;1.25;;;0.77;;
25299;SDS011;13241;51.208;4.432;2023-02-19T17:06:33;18.10;;;2.65;;
25299;SDS011;13241;51.208;4.432;2023-02-19T17:09:03;4.65;;;1.23;;
25299;SDS011;13241;51.208;4.432;2023-02-19T17:11:31;2.95;;;1.77;;
25299;SDS011;13241;51.208;4.432;2023-02-19T17:13:58;6.03;;;1.67;;
25299;SDS011;13241;51.208;4.432;2023-02-19T17:16:26;5.70;;;1.52;;
25299;SDS011;13241;51.208;4.432;2023-02-19T17:18:56;2.45;;;1.58;;
25299;SDS011;13241;51.208;4.432;2023-02-19T17:21:25;3.75;;;1.48;;
25299;SDS011;13241;51.208;4.432;2023-02-19T17:23:55;3.63;;;1.80;;
25299;SDS011;13241;51.208;4.432;2023-02-19T17:26:24;2.33;;;1.23;;
25299;SDS011;13241;51.208;4.432;2023-02-19T17:28:54;3.45;;;0.98;;
25299;SDS011;13241;51.208;4.432;2023-02-19T17:31:22;7.35;;;1.77;;
25299;SDS011;13241;51.208;4.432;2023-02-19T17:33:49;1.85;;;1.25;;
25299;SDS011;13241;51.208;4.432;2023-02-19T17:36:17;9.75;;;1.70;;
25299;SDS011;13241;51.208;4.432;2023-02-19T17:38:50;3.47;;;1.52;;
25299;SDS011;13241;51.208;4.432;2023-02-19T17:41:16;3.33;;;1.58;;
25299;SDS011;13241;51.208;4.432;2023-02-19T17:43:43;5.65;;;1.98;;
25299;SDS011;13241;51.208;4.432;2023-02-19T17:46:14;2.72;;;1.55;;
25299;SDS011;13241;51.208;4.432;2023-02-19T17:48:41;3.20;;;1.60;;
25299;SDS011;13241;51.208;4.432;2023-02-19T17:51:08;5.82;;;2.15;;
25299;SDS011;13241;51.208;4.432;2023-02-19T17:53:35;6.00;;;1.50;;
25299;SDS011;13241;51.208;4.432;2023-02-19T17:56:03;4.22;;;1.42;;
25299;SDS011;13241;51.208;4.432;2023-02-19T17:58:30;7.15;;;2.20;;